Terminal Aerodrome Forecast
Issued by NWS

Home | Current Version | Previous Version | Text Only | Print | Product List | Glossary On
Versions: 1 2 3 4 5 6 7 8 9 10 11 12 13 14 15 16 17 18 19 20 21 22 23 24 25 26 27 28 29 30 31 32 33 34 35 36 37 38
000
FTUS44 KFWD 042102 AAB
TAFFTW
TAF AMD
KFTW 042102Z 0421/0518 36015G25KT 3SM -RA BR OVC009
     FM042300 36024G34KT 3SM -FZRA OVC007
     FM050200 36022G32KT 3SM -PL OVC008
     FM050500 35022G32KT 1SM TSPL OVC005CB
     FM050800 35020G30KT 2SM -SN OVC006
     FM051000 36018KT P6SM SCT006 BKN100=

USA.gov is the U.S. government's official web portal to all federal, state and local government web resources and services.